Galt, IA

12:25 PM CDT on July 23, 2014 (GMT -0500)
Fort Dodge Regional (KFOD) Elev 1165 ft | 42.55 °N, 94.19 °W | Change Station

Current weather conditions updated 10 minutes ago

Mostly Cloudy
Mostly Cloudy
77 °F
Feels Like 77 °F
N
8
Wind Variable Wind from East

Today is forecast to be Much Cooler than yesterday.

Today
High -- | Low -- °F
--% Chance of Precip.
Yesterday
High -- | Low -- °F
Precip. -- in
5:57 AM 8:44 PM
Waning Crescent, 9% visible
Pressure 30.25 in
Visibility 10.0 miles
Clouds Scattered Clouds 3700 ft
Mostly Cloudy 5500 ft
Dew Point 63 °F
Humidity 61%
Rainfall 0.00 in
Snow Depth Not available.
UV 6 out of 12
Pollen 5.90 out of 12
Air Quality Not available.
Flu Activity Not available.
METAR KFOD 231715Z AUTO 09007KT 10SM SCT037 BKN055 25/17 A3025 RMK AO1

More Conditions Fewer Conditions

Pressure 30.25 in
Visibility 10.0 miles
Clouds Scattered Clouds 3700 ft
Mostly Cloudy 5500 ft
Dew Point 63 °F
Humidity 61%
Rainfall 0.00 in
Snow Depth Not available.
UV 6 out of 12
Pollen 5.90 out of 12
Air Quality Not available.
Flu Activity Not available.
METAR KFOD 231715Z AUTO 09007KT 10SM SCT037 BKN055 25/17 A3025 RMK AO1

More Conditions Fewer Conditions

10-Day Weather Forecast

Almanac

Astronomy

Jul. 23, 2014 Rise Set
Actual Time 5:57 AM CDT 8:44 PM CDT
Civil Twilight 5:24 AM CDT 9:16 PM CDT
Nautical Twilight 4:42 AM CDT 9:58 PM CDT
Astronomical Twilight 3:54 AM CDT 10:46 PM CDT
Moon 3:17 AM CDT 6:12 PM CDT
Length of Visible Light 15h 52m
Length of Day
14h 46m
Tomorrow will be 1m 54s shorter.
Waning Crescent, 9% of the Moon is Illuminated
Today
Waning Crescent
Jul 26
New
Aug 3
First Quarter
Aug 10
Full
Aug 17
Last Quarter

Today's Extremes

State Highs State Lows

Community

WunderPhotos

Upload Photos

1,736,678 photos uploaded!

Nearby

Snow Depth

Station Depth Elevation
No new snow has been reported.

Earthquake Activity

City Distance Mag. Time & Date
No recent earthquake activity has been reported nearby.
Minimum magnitude displayed is 2.5.

Coastal Water Temperatures

Place Temperature
No Stations Reporting

Nearby Weather Stations

Station Location Temp. Heat Index Dew Point Humidity Wind Precip. Elev Updated Type
Beeds Addition, Hampton, IA 78.4 °F 80 °F 60 °F 54% East  at  3.8 mph 0.00 in / hr 1145 ft 12:24 PM CDT Rapid Fire
Tall Grass Prairie, Klemme, IA 79.9 °F 80 °F 56 °F 44% NE  at  7.6 mph 0.00 in / hr 1207 ft 12:22 PM CDT Normal
MesoWest SHEFFI , Chapin, IA 77 °F 75 °F - - North  at  - 0.00 in / hr 1154 ft 8:35 AM CDT MADIS
Jensen Farm, Iowa Falls, IA 76.3 °F 78 °F 56 °F 50% NE  at  7.0 mph 0.00 in / hr 1129 ft 12:24 PM CDT Rapid Fire

Show More Stations Show Fewer Stations